Akron, Michigan
Current Conditions -  °F | °C
As of 9:05 AM on Sunday 23 Nov 2014 (Local Time) from KCFS Reporting Station
Overcast Overcast  
Wind Chill: 44°   Ceiling: 8000
Heat Index: 48°   Visibility: 10mi
Dew Point: 45°   Wind: 10mph
Humidity: 87%   Direction: 170°S
Pressure: 29.86"   Gusts: NA
Location:  43.57°N, 83.51°W
Report Text: KCFS 231405Z AUTO 17009KT 10SM SCT039 BKN080 OVC100 09/07 A2986 RMK AO2
Loading
Personal Weather Stations






























Interactive Weather Map New forecast layout! Learn more

10-Day Weather Forecast

Advertisements
Track Severe Weather on mobile